Time;durP1;ratioP1;P1;durP2;ratioP2;P2;SDS_P1;SDS_P2;PMS_P1;PMS_P2;Temp;Humidity;BMP_temperature;BMP_pressure;BME280_temperature;BME280_humidity;BME280_pressure;Samples;Min_cycle;Max_cycle;Signal;HPM_P1;HPM_P2
2023/05/02 00:00:25;;;;;;;6.07;2.00;;;9.70;99.90;;;;;;5155204;27;20039;-82
2023/05/02 00:02:51;;;;;;;3.20;1.77;;;10.30;99.90;;;;;;5138382;27;20039;-83
2023/05/02 00:05:17;;;;;;;4.47;1.35;;;9.70;99.90;;;;;;5137788;27;20486;-82
2023/05/02 00:07:43;;;;;;;10.45;2.08;;;9.60;99.90;;;;;;5156950;27;20091;-82
2023/05/02 00:10:09;;;;;;;6.15;2.05;;;9.60;99.90;;;;;;5156425;27;20079;-83
2023/05/02 00:12:35;;;;;;;7.00;2.28;;;10.10;99.90;;;;;;5138458;27;20041;-82
2023/05/02 00:15:01;;;;;;;6.65;2.47;;;10.20;99.90;;;;;;5156877;27;20027;-83
2023/05/02 00:17:27;;;;;;;6.00;1.67;;;10.10;99.90;;;;;;5155649;27;20569;-82
2023/05/02 00:19:52;;;;;;;7.15;2.05;;;9.60;99.90;;;;;;5138075;27;20034;-82
2023/05/02 00:22:21;;;;;;;5.18;2.15;;;9.60;99.90;;;;;;5155645;27;20039;-82
2023/05/02 00:24:46;;;;;;;4.32;1.92;;;10.10;99.90;;;;;;5148227;27;20152;-84
2023/05/02 00:27:13;;;;;;;7.07;2.33;;;9.80;99.90;;;;;;5156467;27;20074;-83
2023/05/02 00:29:39;;;;;;;5.78;2.00;;;10.40;99.90;;;;;;5137327;27;20414;-83
2023/05/02 00:32:05;;;;;;;5.20;1.88;;;9.60;99.90;;;;;;5156167;27;20463;-82
2023/05/02 00:34:31;;;;;;;7.57;2.00;;;10.10;99.90;;;;;;5155556;27;20117;-83
2023/05/02 00:36:58;;;;;;;11.63;1.73;;;9.60;99.90;;;;;;5137571;27;20509;-82
2023/05/02 00:39:24;;;;;;;4.45;1.80;;;10.30;99.90;;;;;;5155821;27;20035;-82
2023/05/02 00:41:58;;;;;;;4.53;1.70;;;9.60;99.90;;;;;;5155803;27;20034;-82
2023/05/02 00:44:24;;;;;;;6.90;1.67;;;9.60;99.90;;;;;;5155771;27;20091;-82
2023/05/02 00:46:51;;;;;;;4.28;1.83;;;9.70;99.90;;;;;;5155844;27;20490;-83
2023/05/02 00:49:18;;;;;;;6.45;2.05;;;9.60;99.90;;;;;;5137468;27;20035;-83
2023/05/02 00:51:43;;;;;;;7.50;1.70;;;10.30;99.90;;;;;;5154801;27;20686;-82
2023/05/02 00:54:10;;;;;;;6.30;1.45;;;9.60;99.90;;;;;;5149764;27;20063;-85
2023/05/02 00:56:36;;;;;;;5.18;1.88;;;9.60;99.90;;;;;;5155407;27;20497;-83
2023/05/02 00:59:04;;;;;;;7.60;1.73;;;9.50;99.90;;;;;;5155720;27;20039;-82
2023/05/02 01:02:07;;;;;;;4.28;1.50;;;9.60;99.90;;;;;;5155122;27;20035;-83
2023/05/02 01:04:36;;;;;;;3.60;1.33;;;9.60;99.90;;;;;;5152603;27;20509;-82
2023/05/02 01:07:12;;;;;;;7.95;2.30;;;10.00;99.90;;;;;;5155701;27;20156;-83
2023/05/02 01:09:55;;;;;;;7.13;1.27;;;9.60;99.90;;;;;;5154806;27;20047;-82
2023/05/02 01:12:37;;;;;;;6.78;1.35;;;9.50;99.90;;;;;;5137069;27;20107;-84
2023/05/02 01:15:06;;;;;;;11.07;2.00;;;9.80;99.90;;;;;;5148751;27;20042;-83
2023/05/02 01:17:34;;;;;;;14.57;2.05;;;9.40;99.90;;;;;;5136636;27;20110;-83
2023/05/02 01:20:10;;;;;;;9.93;3.03;;;9.30;99.90;;;;;;5147414;27;20384;-85
2023/05/02 01:22:39;;;;;;;13.60;2.05;;;9.20;99.90;;;;;;5121178;27;20111;-83
2023/05/02 01:25:43;;;;;;;9.77;1.60;;;9.40;99.90;;;;;;5119945;27;20511;-83
2023/05/02 01:28:14;;;;;;;11.95;2.80;;;8.90;99.90;;;;;;5147956;27;20376;-83
2023/05/02 01:30:43;;;;;;;11.98;2.10;;;8.80;99.90;;;;;;5154895;27;20045;-83
2023/05/02 01:33:12;;;;;;;13.20;1.73;;;9.20;99.90;;;;;;5154723;27;20053;-83
2023/05/02 01:35:39;;;;;;;12.15;2.28;;;8.50;99.90;;;;;;5154897;27;20039;-82
2023/05/02 01:38:06;;;;;;;12.55;2.13;;;9.30;99.90;;;;;;5147140;27;20038;-82
2023/05/02 01:40:33;;;;;;;8.88;1.60;;;8.40;99.90;;;;;;5136700;27;20432;-83
2023/05/02 01:43:03;;;;;;;10.25;1.80;;;8.50;99.90;;;;;;5135457;27;20095;-83
2023/05/02 01:45:31;;;;;;;8.60;1.92;;;8.30;99.90;;;;;;5154842;27;20121;-83
2023/05/02 01:47:59;;;;;;;14.27;1.88;;;8.40;99.90;;;;;;5154152;27;20078;-83
2023/05/02 01:50:26;;;;;;;12.82;2.13;;;8.40;99.90;;;;;;5154821;27;20047;-83
2023/05/02 01:52:54;;;;;;;15.88;2.63;;;8.60;99.90;;;;;;5135644;27;20385;-82
2023/05/02 01:55:20;;;;;;;17.30;2.65;;;8.40;99.90;;;;;;5118643;27;20083;-83
2023/05/02 01:57:49;;;;;;;9.23;1.73;;;8.40;99.90;;;;;;5135583;27;20058;-83
2023/05/02 02:00:17;;;;;;;4.90;1.70;;;8.30;99.90;;;;;;5154569;27;20043;-84
2023/05/02 02:02:44;;;;;;;11.02;1.60;;;8.30;99.90;;;;;;5135108;27;20085;-81
2023/05/02 02:05:11;;;;;;;18.92;2.70;;;8.30;99.90;;;;;;5136109;27;20034;-83
2023/05/02 02:07:37;;;;;;;14.80;3.08;;;8.20;99.90;;;;;;5154174;27;20046;-82
2023/05/02 02:10:03;;;;;;;12.95;1.70;;;8.20;99.90;;;;;;5135294;27;20046;-82
2023/05/02 02:12:55;;;;;;;11.48;2.33;;;8.20;99.90;;;;;;5154155;27;20039;-83
2023/05/02 02:15:26;;;;;;;9.80;1.98;;;8.20;99.90;;;;;;5147300;27;20046;-82
2023/05/02 02:18:00;;;;;;;14.57;2.13;;;8.40;99.90;;;;;;5153610;27;20051;-83
2023/05/02 02:20:31;;;;;;;15.73;2.30;;;8.30;99.90;;;;;;5135483;27;20400;-82
2023/05/02 02:22:59;;;;;;;15.68;2.33;;;8.80;99.90;;;;;;5153357;27;20086;-83
2023/05/02 02:25:26;;;;;;;10.55;2.42;;;8.10;99.90;;;;;;5135480;27;20042;-82
2023/05/02 02:27:52;;;;;;;10.55;1.63;;;8.00;99.90;;;;;;5153811;27;20418;-82
2023/05/02 02:30:18;;;;;;;11.85;1.63;;;8.40;99.90;;;;;;5132113;27;20043;-83
2023/05/02 02:32:44;;;;;;;6.15;1.42;;;7.90;99.90;;;;;;5149099;27;20035;-83
2023/05/02 02:35:10;;;;;;;13.68;2.33;;;8.10;99.90;;;;;;5153149;27;20099;-82
2023/05/02 02:38:06;;;;;;;12.23;2.20;;;7.80;99.90;;;;;;5135879;27;20172;-82
2023/05/02 02:40:48;;;;;;;22.67;3.30;;;7.80;99.90;;;;;;5148737;27;20046;-82
2023/05/02 02:43:35;;;;;;;8.13;1.80;;;7.80;99.90;;;;;;5152940;27;20053;-83
2023/05/02 02:46:22;;;;;;;9.80;2.30;;;7.50;99.90;;;;;;5153395;27;20047;-83
2023/05/02 02:49:20;;;;;;;17.65;2.33;;;7.70;99.90;;;;;;5153631;27;20042;-83
2023/05/02 02:52:09;;;;;;;17.27;2.53;;;7.90;99.90;;;;;;5085180;28;20040;-82
2023/05/02 02:54:45;;;;;;;8.82;1.80;;;7.70;99.90;;;;;;5089646;28;20249;-84
2023/05/02 02:57:32;;;;;;;9.60;1.30;;;7.70;99.90;;;;;;5072503;28;20040;-83
2023/05/02 03:00:20;;;;;;;12.20;1.77;;;7.70;99.90;;;;;;5072502;28;20047;-83
2023/05/02 03:02:47;;;;;;;8.48;1.92;;;7.70;99.90;;;;;;5072569;28;20044;-82
2023/05/02 03:05:14;;;;;;;15.60;1.70;;;7.60;99.90;;;;;;5072361;28;20396;-82
2023/05/02 03:07:40;;;;;;;14.82;1.30;;;7.90;99.90;;;;;;5089603;28;20593;-83
2023/05/02 03:10:08;;;;;;;8.30;1.33;;;8.30;99.90;;;;;;5071852;28;20040;-82
2023/05/02 03:12:33;;;;;;;6.78;1.08;;;7.50;99.90;;;;;;5089291;28;20129;-83
2023/05/02 03:15:20;;;;;;;4.68;1.08;;;7.40;99.90;;;;;;5089232;28;20135;-82
2023/05/02 03:17:45;;;;;;;6.75;1.08;;;7.40;99.90;;;;;;5089263;28;20056;-83
2023/05/02 03:20:11;;;;;;;7.35;1.98;;;8.10;99.90;;;;;;5089010;28;20149;-83
2023/05/02 03:22:37;;;;;;;5.43;1.00;;;7.60;99.90;;;;;;5089507;28;20455;-83
2023/05/02 03:25:02;;;;;;;13.90;1.52;;;7.40;99.90;;;;;;5089546;28;20036;-83
2023/05/02 03:27:28;;;;;;;7.38;1.00;;;7.40;99.90;;;;;;5105706;27;20200;-83
2023/05/02 03:29:54;;;;;;;7.40;1.10;;;8.30;99.90;;;;;;5152926;27;20049;-82
2023/05/02 03:32:19;;;;;;;8.65;1.23;;;8.20;99.90;;;;;;5152843;27;20042;-86
2023/05/02 03:34:45;;;;;;;3.40;1.13;;;7.90;99.90;;;;;;5153460;27;20039;-83
2023/05/02 03:37:11;;;;;;;9.65;1.17;;;7.50;99.90;;;;;;5153244;27;20096;-85
2023/05/02 03:39:36;;;;;;;8.23;1.25;;;7.40;99.90;;;;;;5152367;27;20089;-83
2023/05/02 03:42:02;;;;;;;2.45;0.70;;;7.70;99.90;;;;;;5152817;27;20035;-83
2023/05/02 03:44:28;;;;;;;6.28;1.00;;;7.30;99.90;;;;;;5152456;27;20038;-83
2023/05/02 03:46:54;;;;;;;5.45;1.00;;;7.30;99.90;;;;;;5153206;27;20059;-83
2023/05/02 03:49:19;;;;;;;4.97;0.70;;;8.00;99.90;;;;;;5152210;27;20391;-82
2023/05/02 03:51:45;;;;;;;7.85;0.90;;;7.30;99.90;;;;;;5152701;27;20126;-83
2023/05/02 03:54:10;;;;;;;2.20;0.75;;;7.70;99.90;;;;;;5152897;27;20031;-82
2023/05/02 03:56:37;;;;;;;6.05;0.90;;;7.20;99.90;;;;;;5152165;27;20042;-82
2023/05/02 03:59:02;;;;;;;6.22;0.70;;;7.20;99.90;;;;;;5134414;27;20074;-83
2023/05/02 04:01:28;;;;;;;3.60;0.80;;;7.30;99.90;;;;;;5151920;27;20082;-82
2023/05/02 04:03:54;;;;;;;8.40;1.20;;;7.30;99.90;;;;;;5152550;27;20110;-83
2023/05/02 04:06:20;;;;;;;2.30;0.80;;;7.20;99.90;;;;;;5134339;27;20046;-83
2023/05/02 04:08:46;;;;;;;2.80;0.70;;;7.10;99.90;;;;;;5152162;27;20052;-83
2023/05/02 04:11:11;;;;;;;2.95;0.95;;;7.40;99.90;;;;;;5152310;27;20061;-82
2023/05/02 04:13:37;;;;;;;3.03;0.90;;;7.10;99.90;;;;;;5152343;27;20043;-83
2023/05/02 04:16:03;;;;;;;4.18;0.93;;;7.10;99.90;;;;;;5152483;27;20431;-82
2023/05/02 04:18:29;;;;;;;8.02;1.15;;;7.10;99.90;;;;;;5125263;27;20084;-83
2023/05/02 04:20:55;;;;;;;6.32;1.00;;;7.10;99.90;;;;;;5126391;28;20071;-83
2023/05/02 04:23:21;;;;;;;8.48;1.10;;;7.20;99.90;;;;;;5127691;28;20043;-82
2023/05/02 04:25:52;;;;;;;2.70;1.27;;;7.60;99.90;;;;;;5131417;27;20050;-84
2023/05/02 04:28:21;;;;;;;2.42;0.80;;;8.00;99.90;;;;;;5134586;27;20051;-83
2023/05/02 04:30:48;;;;;;;8.43;0.80;;;7.90;99.90;;;;;;5134815;27;20057;-83
2023/05/02 04:33:14;;;;;;;3.25;0.65;;;7.00;99.90;;;;;;5135918;27;20497;-82
2023/05/02 04:35:40;;;;;;;5.18;0.80;;;6.50;99.90;;;;;;5135122;27;20043;-83
2023/05/02 04:38:07;;;;;;;3.28;0.77;;;7.90;99.90;;;;;;5135689;27;20130;-84
2023/05/02 04:40:33;;;;;;;2.47;0.80;;;8.10;99.90;;;;;;5133673;27;20039;-84
2023/05/02 04:42:59;;;;;;;6.78;1.02;;;7.30;99.90;;;;;;5135141;27;20035;-82
2023/05/02 04:45:24;;;;;;;10.02;1.40;;;7.60;99.90;;;;;;5134336;27;20410;-84
2023/05/02 04:47:50;;;;;;;6.43;1.27;;;7.00;99.90;;;;;;5133391;27;20041;-82
2023/05/02 04:50:16;;;;;;;9.82;1.48;;;7.00;99.90;;;;;;5135120;27;20039;-82
2023/05/02 04:52:42;;;;;;;5.03;1.25;;;7.30;99.90;;;;;;5134941;27;20372;-82
2023/05/02 04:55:08;;;;;;;6.13;0.93;;;6.90;99.90;;;;;;5134053;27;20084;-82
2023/05/02 04:57:34;;;;;;;7.85;1.15;;;7.50;99.90;;;;;;5135433;27;20043;-83
2023/05/02 05:00:00;;;;;;;8.88;1.38;;;7.70;99.90;;;;;;5133227;27;20452;-82
2023/05/02 05:02:25;;;;;;;9.10;1.50;;;7.10;99.90;;;;;;5135109;27;20082;-83
2023/05/02 05:04:51;;;;;;;9.23;1.67;;;7.00;99.90;;;;;;5135383;27;20071;-82
2023/05/02 05:07:17;;;;;;;5.95;1.10;;;7.90;99.90;;;;;;5135986;27;20118;-82
2023/05/02 05:09:43;;;;;;;7.45;1.35;;;7.10;99.90;;;;;;5133586;27;20050;-82
2023/05/02 05:12:08;;;;;;;4.50;1.27;;;8.00;99.90;;;;;;5134823;27;20031;-83
2023/05/02 05:14:34;;;;;;;6.22;1.60;;;7.50;99.90;;;;;;5134780;27;20046;-83
2023/05/02 05:17:00;;;;;;;9.70;1.30;;;7.00;99.90;;;;;;5133912;27;20156;-83
2023/05/02 05:19:26;;;;;;;5.28;1.20;;;7.00;99.90;;;;;;5133141;27;20399;-83
2023/05/02 05:21:52;;;;;;;6.70;1.10;;;7.40;99.90;;;;;;5151180;27;20050;-82
2023/05/02 05:24:18;;;;;;;4.65;1.05;;;7.00;99.90;;;;;;5155261;27;20066;-85
2023/05/02 05:26:44;;;;;;;8.27;1.98;;;7.00;99.90;;;;;;5136431;27;20051;-82
2023/05/02 05:29:09;;;;;;;8.80;1.25;;;8.00;99.90;;;;;;5154181;27;20034;-82
2023/05/02 05:31:36;;;;;;;8.75;1.33;;;7.50;99.90;;;;;;5136559;27;20054;-82
2023/05/02 05:34:03;;;;;;;7.93;1.35;;;7.10;99.90;;;;;;5154283;27;20042;-82
2023/05/02 05:36:28;;;;;;;7.13;0.82;;;7.00;99.90;;;;;;5154980;27;20546;-83
2023/05/02 05:38:54;;;;;;;4.97;1.02;;;7.70;99.90;;;;;;5153855;27;20130;-83
2023/05/02 05:41:21;;;;;;;12.70;1.35;;;7.70;99.90;;;;;;5154943;27;20085;-82
2023/05/02 05:43:47;;;;;;;6.72;1.35;;;8.00;99.90;;;;;;5154865;27;20034;-85
2023/05/02 05:46:13;;;;;;;4.28;1.10;;;7.90;99.90;;;;;;5136356;27;20588;-84
2023/05/02 05:48:38;;;;;;;6.68;1.98;;;7.80;99.90;;;;;;5154794;27;20117;-83
2023/05/02 05:51:04;;;;;;;4.20;0.98;;;7.10;99.90;;;;;;5154217;27;20030;-83
2023/05/02 05:53:31;;;;;;;3.53;0.93;;;7.10;99.90;;;;;;5154870;27;20034;-82
2023/05/02 05:55:56;;;;;;;3.75;1.00;;;7.70;99.90;;;;;;5154326;27;20038;-83
2023/05/02 05:58:22;;;;;;;9.63;1.25;;;7.40;99.90;;;;;;5136047;27;20447;-83
2023/05/02 06:00:49;;;;;;;4.32;1.00;;;7.60;99.90;;;;;;5154544;27;20038;-82
2023/05/02 06:03:15;;;;;;;6.70;1.05;;;8.00;99.90;;;;;;5135733;27;20038;-83
2023/05/02 06:05:41;;;;;;;2.97;1.00;;;7.80;99.90;;;;;;5136202;27;20047;-82
2023/05/02 06:08:07;;;;;;;5.07;1.00;;;7.90;99.90;;;;;;5154220;27;20054;-84
2023/05/02 06:10:33;;;;;;;6.85;0.90;;;7.70;99.90;;;;;;5154358;27;20084;-82
2023/05/02 06:12:59;;;;;;;3.80;0.80;;;7.30;99.90;;;;;;5135776;27;20046;-82
2023/05/02 06:15:24;;;;;;;6.03;1.05;;;7.40;99.90;;;;;;5135754;27;20402;-82
2023/05/02 06:17:51;;;;;;;6.03;1.15;;;7.00;99.90;;;;;;5135277;27;20037;-85
2023/05/02 06:20:17;;;;;;;5.93;1.00;;;7.40;99.90;;;;;;5153224;27;20038;-85
2023/05/02 06:22:42;;;;;;;7.80;1.30;;;7.70;99.90;;;;;;5154310;27;20505;-85
2023/05/02 06:25:08;;;;;;;2.80;1.00;;;8.10;99.90;;;;;;5154240;27;20038;-86
2023/05/02 06:27:34;;;;;;;7.30;1.10;;;7.50;99.90;;;;;;5155028;27;20046;-81
2023/05/02 06:30:00;;;;;;;9.63;1.30;;;7.70;99.90;;;;;;5154044;27;20035;-82
2023/05/02 06:32:32;;;;;;;4.00;0.90;;;8.00;99.90;;;;;;5154279;27;20034;-84
2023/05/02 06:34:57;;;;;;;6.45;1.35;;;7.70;99.90;;;;;;5154409;27;20042;-86
2023/05/02 06:37:23;;;;;;;8.10;1.00;;;7.80;99.90;;;;;;5128665;27;20039;-85
2023/05/02 06:39:49;;;;;;;3.17;0.82;;;7.60;99.90;;;;;;5121504;27;20043;-82
2023/05/02 06:42:15;;;;;;;3.40;1.20;;;8.00;99.90;;;;;;5133973;27;20043;-85
2023/05/02 06:44:43;;;;;;;5.57;1.50;;;7.70;99.90;;;;;;5113304;27;20436;-85
2023/05/02 06:47:09;;;;;;;7.10;1.40;;;7.70;99.90;;;;;;5155203;27;20121;-86
2023/05/02 06:49:34;;;;;;;3.28;1.13;;;7.80;99.90;;;;;;5137481;27;20077;-86
2023/05/02 06:52:00;;;;;;;5.25;0.90;;;7.80;99.90;;;;;;5127743;27;20038;-87
2023/05/02 06:54:26;;;;;;;4.60;1.30;;;8.20;99.90;;;;;;5136330;27;20038;-84
2023/05/02 06:56:52;;;;;;;10.95;1.83;;;7.90;99.90;;;;;;5136236;27;20470;-83
2023/05/02 06:59:18;;;;;;;7.50;1.40;;;7.90;99.90;;;;;;5135606;27;20414;-87
2023/05/02 07:01:44;;;;;;;6.53;1.88;;;8.40;99.90;;;;;;5135728;27;20051;-84
2023/05/02 07:04:10;;;;;;;8.40;0.98;;;8.00;99.90;;;;;;5135978;27;20051;-84
2023/05/02 07:06:35;;;;;;;4.18;1.45;;;8.40;99.90;;;;;;5136244;27;20043;-86
2023/05/02 07:09:01;;;;;;;8.98;1.40;;;9.00;99.90;;;;;;5135461;27;20059;-85
2023/05/02 07:11:27;;;;;;;6.80;1.10;;;8.50;99.90;;;;;;5154131;27;20047;-86
2023/05/02 07:13:53;;;;;;;4.72;1.35;;;8.10;99.90;;;;;;5135369;27;20038;-87
2023/05/02 07:16:19;;;;;;;7.90;1.63;;;8.50;99.90;;;;;;5153325;27;20034;-86
2023/05/02 07:18:45;;;;;;;6.38;1.23;;;8.10;99.90;;;;;;5134900;27;20046;-87
2023/05/02 07:21:11;;;;;;;7.30;1.17;;;8.20;99.90;;;;;;5135548;27;20043;-84
2023/05/02 07:23:37;;;;;;;3.80;1.20;;;8.30;99.90;;;;;;5134785;27;20533;-83
2023/05/02 07:26:06;;;;;;;3.63;1.52;;;9.10;99.90;;;;;;5154365;27;20035;-82
2023/05/02 07:28:32;;;;;;;4.85;1.40;;;8.40;99.90;;;;;;5153856;27;20042;-82
2023/05/02 07:30:58;;;;;;;3.80;0.95;;;8.50;99.90;;;;;;5154148;27;20578;-83
2023/05/02 07:33:24;;;;;;;6.43;1.10;;;9.50;99.90;;;;;;5154123;27;20156;-83
2023/05/02 07:35:50;;;;;;;1.88;0.80;;;8.50;99.90;;;;;;5154762;27;20074;-83
2023/05/02 07:38:16;;;;;;;4.20;1.20;;;9.30;99.90;;;;;;5135571;27;20038;-84
2023/05/02 07:40:42;;;;;;;4.72;0.82;;;8.90;99.90;;;;;;5154087;27;20129;-84
2023/05/02 07:43:08;;;;;;;2.58;0.88;;;9.30;99.90;;;;;;5135751;27;20121;-83
2023/05/02 07:45:34;;;;;;;2.92;0.70;;;9.20;99.90;;;;;;5134945;27;20043;-81
2023/05/02 07:48:00;;;;;;;4.63;0.80;;;8.90;99.90;;;;;;5153822;27;20065;-83
2023/05/02 07:50:26;;;;;;;2.95;0.65;;;9.50;99.90;;;;;;5154248;27;20471;-84
2023/05/02 07:52:54;;;;;;;1.15;0.50;;;9.00;99.90;;;;;;5135319;27;20039;-84
2023/05/02 07:55:20;;;;;;;3.40;0.77;;;9.10;99.90;;;;;;5154008;27;20129;-84
2023/05/02 07:57:46;;;;;;;4.13;0.95;;;9.20;99.90;;;;;;5125908;27;20445;-82
2023/05/02 08:00:13;;;;;;;1.88;0.63;;;10.20;99.90;;;;;;5119061;27;20077;-81
2023/05/02 08:02:40;;;;;;;3.55;0.70;;;9.70;99.90;;;;;;5157486;27;20038;-85
2023/05/02 08:05:06;;;;;;;2.58;0.98;;;9.80;99.90;;;;;;5157766;27;20055;-81
2023/05/02 08:07:34;;;;;;;5.78;0.80;;;9.80;99.90;;;;;;5158115;27;20080;-83
2023/05/02 08:10:00;;;;;;;1.40;0.60;;;9.90;99.90;;;;;;5139364;27;20095;-82
2023/05/02 08:12:26;;;;;;;1.90;0.60;;;9.60;99.90;;;;;;5139206;27;20050;-82
2023/05/02 08:14:52;;;;;;;2.88;0.70;;;9.90;99.90;;;;;;5157892;27;20035;-82
2023/05/02 08:17:17;;;;;;;4.68;0.63;;;9.80;99.90;;;;;;5156115;27;20035;-85
2023/05/02 08:19:43;;;;;;;2.13;0.50;;;9.90;99.90;;;;;;5139238;27;20046;-83
2023/05/02 08:22:09;;;;;;;2.53;0.63;;;9.80;99.90;;;;;;5157708;27;20091;-83
2023/05/02 08:24:35;;;;;;;2.72;0.70;;;9.80;99.90;;;;;;5157713;27;20058;-89
2023/05/02 08:27:02;;;;;;;1.55;0.60;;;9.80;99.90;;;;;;5129842;27;20049;-87
2023/05/02 08:29:29;;;;;;;1.42;0.45;;;9.80;99.90;;;;;;5134844;27;20474;-84
2023/05/02 08:31:55;;;;;;;7.90;0.77;;;9.80;99.90;;;;;;5139061;27;20059;-85
2023/05/02 08:34:21;;;;;;;3.55;0.50;;;9.80;99.70;;;;;;5138657;27;20050;-84
2023/05/02 08:36:47;;;;;;;5.15;0.52;;;10.00;99.90;;;;;;5129695;27;20038;-85
2023/05/02 08:39:12;;;;;;;3.92;0.68;;;9.80;99.90;;;;;;5157427;27;20420;-86
2023/05/02 08:41:38;;;;;;;3.53;0.68;;;9.70;99.90;;;;;;5138951;27;20074;-86
2023/05/02 08:44:06;;;;;;;3.75;0.52;;;9.90;99.90;;;;;;5157018;27;20038;-83
2023/05/02 08:46:35;;;;;;;3.38;1.00;;;10.20;99.90;;;;;;5140238;27;20498;-88
2023/05/02 08:49:02;;;;;;;8.60;0.63;;;10.70;99.90;;;;;;5138322;27;20046;-85
2023/05/02 08:51:29;;;;;;;4.80;0.70;;;10.90;99.90;;;;;;5138783;27;20631;-85
2023/05/02 08:53:56;;;;;;;3.38;0.70;;;11.10;99.90;;;;;;5138538;27;20360;-84
2023/05/02 08:56:22;;;;;;;4.25;0.45;;;11.30;99.90;;;;;;5138370;27;20043;-86
2023/05/02 08:58:47;;;;;;;4.60;0.40;;;11.50;98.70;;;;;;5137867;27;20141;-85
2023/05/02 09:01:18;;;;;;;1.05;0.90;;;11.60;98.40;;;;;;5156855;27;20080;-86
2023/05/02 09:03:45;;;;;;;2.45;0.82;;;11.30;99.10;;;;;;5138189;27;20046;-87
2023/05/02 09:06:19;;;;;;;3.78;0.60;;;11.20;98.10;;;;;;5156649;27;20030;-86
2023/05/02 09:08:48;;;;;;;5.57;0.70;;;11.00;98.30;;;;;;5138101;27;20050;-86
2023/05/02 09:11:15;;;;;;;2.55;0.50;;;10.80;98.60;;;;;;5155288;27;20394;-84
2023/05/02 09:13:43;;;;;;;0.68;0.38;;;10.60;99.80;;;;;;5156693;27;20057;-87
2023/05/02 09:16:13;;;;;;;2.42;0.47;;;10.60;99.90;;;;;;5138339;27;20047;-85
2023/05/02 09:18:47;;;;;;;3.35;0.60;;;10.70;99.90;;;;;;5156424;27;20078;-84
2023/05/02 09:21:16;;;;;;;1.70;0.32;;;10.80;99.90;;;;;;5156074;27;20479;-85
2023/05/02 09:23:47;;;;;;;8.90;0.70;;;11.50;99.90;;;;;;5138184;27;20039;-85
2023/05/02 09:26:21;;;;;;;3.03;0.40;;;10.90;99.90;;;;;;5137517;27;20082;-86
2023/05/02 09:28:51;;;;;;;5.15;0.50;;;10.90;99.90;;;;;;5156362;27;20051;-86
2023/05/02 09:31:20;;;;;;;2.70;0.50;;;10.80;99.90;;;;;;5137776;27;20058;-85
2023/05/02 09:33:46;;;;;;;3.33;0.40;;;10.90;99.90;;;;;;5155775;27;20081;-84
2023/05/02 09:36:16;;;;;;;0.95;0.43;;;11.00;99.90;;;;;;5137828;27;20064;-85
2023/05/02 09:38:44;;;;;;;2.10;0.40;;;10.80;99.90;;;;;;5156067;27;20050;-83
2023/05/02 09:41:10;;;;;;;1.70;0.50;;;10.90;99.90;;;;;;5136989;27;20555;-87
2023/05/02 09:43:37;;;;;;;3.03;0.52;;;10.70;99.90;;;;;;5136314;27;20098;-88
2023/05/02 09:46:08;;;;;;;1.85;0.40;;;10.80;99.90;;;;;;5155744;27;20378;-88
2023/05/02 09:48:56;;;;;;;3.60;1.25;;;10.60;99.90;;;;;;5136202;27;20046;-86
2023/05/02 09:51:26;;;;;;;2.75;0.50;;;10.70;99.90;;;;;;5131039;27;20035;-89
2023/05/02 09:53:52;;;;;;;1.35;0.50;;;10.70;99.90;;;;;;5118835;27;20439;-87
2023/05/02 09:56:18;;;;;;;6.28;0.85;;;10.80;99.90;;;;;;5136285;27;20114;-86
2023/05/02 09:58:44;;;;;;;4.60;0.63;;;10.70;99.90;;;;;;5154574;27;20046;-89
2023/05/02 10:01:19;;;;;;;1.60;0.43;;;10.80;99.90;;;;;;5135767;27;20079;-85
2023/05/02 10:03:52;;;;;;;2.83;0.57;;;10.80;99.90;;;;;;5154797;27;20047;-86
2023/05/02 10:06:19;;;;;;;2.53;0.57;;;10.20;99.90;;;;;;5146505;27;20122;-84
2023/05/02 10:08:46;;;;;;;4.93;0.60;;;10.70;99.90;;;;;;5135765;27;20133;-85
2023/05/02 10:11:12;;;;;;;2.13;0.50;;;10.70;99.90;;;;;;5154255;27;20452;-86
2023/05/02 10:13:41;;;;;;;2.28;0.60;;;11.00;99.90;;;;;;5136079;27;20046;-89
2023/05/02 10:16:10;;;;;;;1.05;0.40;;;10.90;99.90;;;;;;5119579;27;20043;-83
2023/05/02 10:18:54;;;;;;;4.32;0.52;;;11.10;99.90;;;;;;5134977;27;20494;-85
2023/05/02 10:21:33;;;;;;;5.05;1.27;;;11.20;99.90;;;;;;5135271;27;20083;-82
2023/05/02 10:24:02;;;;;;;3.42;0.40;;;11.10;99.90;;;;;;5133763;27;20059;-87
2023/05/02 10:26:28;;;;;;;1.00;0.40;;;11.50;99.90;;;;;;5136143;27;20482;-84
2023/05/02 10:28:55;;;;;;;3.97;0.63;;;11.50;99.90;;;;;;5154055;27;20452;-86
2023/05/02 10:31:21;;;;;;;2.53;0.40;;;11.80;99.90;;;;;;5154184;27;20045;-85
2023/05/02 10:33:51;;;;;;;1.80;0.50;;;11.80;99.90;;;;;;5117330;27;20035;-85
2023/05/02 10:36:21;;;;;;;2.78;0.52;;;11.80;99.90;;;;;;5135397;27;20034;-83
2023/05/02 10:38:47;;;;;;;3.92;0.60;;;12.00;99.90;;;;;;5135177;27;20042;-86
2023/05/02 10:41:23;;;;;;;2.38;0.40;;;11.60;99.90;;;;;;5134924;27;20038;-85
2023/05/02 10:43:49;;;;;;;6.80;0.60;;;11.60;99.90;;;;;;5145088;27;20046;-85
2023/05/02 10:46:35;;;;;;;1.70;0.47;;;11.50;99.90;;;;;;5121325;27;20043;-87
2023/05/02 10:49:10;;;;;;;3.13;0.40;;;11.30;99.90;;;;;;5129629;27;20047;-86
2023/05/02 10:51:38;;;;;;;1.17;0.40;;;11.40;99.90;;;;;;5134551;27;20050;-86
2023/05/02 11:01:29;;;;;;;2.10;0.38;;;11.30;99.90;;;;;;5147793;27;20134;-89
2023/05/02 11:04:05;;;;;;;1.20;0.47;;;11.60;99.90;;;;;;5134630;27;20050;-84
2023/05/02 11:06:55;;;;;;;2.75;0.68;;;11.80;99.90;;;;;;5153674;27;20088;-85
2023/05/02 11:09:21;;;;;;;3.67;0.65;;;12.20;99.90;;;;;;5082278;28;20055;-85
2023/05/02 11:11:48;;;;;;;1.17;0.40;;;12.20;99.90;;;;;;5087214;28;20052;-85
2023/05/02 11:14:27;;;;;;;2.45;0.30;;;12.20;98.60;;;;;;5088378;28;20129;-85
2023/05/02 11:17:08;;;;;;;2.40;0.30;;;12.50;99.90;;;;;;5089686;28;20135;-86
2023/05/02 11:19:36;;;;;;;1.85;0.40;;;12.20;99.00;;;;;;5081991;28;20048;-84
2023/05/02 11:22:19;;;;;;;5.60;0.40;;;12.30;98.90;;;;;;5088863;28;20052;-85
2023/05/02 11:24:49;;;;;;;0.80;0.30;;;12.20;97.60;;;;;;5072450;28;20154;-86
2023/05/02 11:27:32;;;;;;;1.63;0.30;;;12.40;98.30;;;;;;5072082;28;20048;-86
2023/05/02 11:30:08;;;;;;;5.25;0.38;;;12.60;97.60;;;;;;5072628;28;20453;-86
2023/05/02 11:32:48;;;;;;;3.33;0.35;;;13.40;98.20;;;;;;5072746;28;20044;-87
2023/05/02 11:35:26;;;;;;;1.38;0.30;;;13.10;96.70;;;;;;5074796;28;20052;-86
2023/05/02 11:37:59;;;;;;;3.03;0.40;;;12.80;98.20;;;;;;5094008;28;20047;-86
2023/05/02 11:40:26;;;;;;;3.25;0.22;;;13.00;98.90;;;;;;5076956;28;20059;-87
2023/05/02 11:42:55;;;;;;;1.15;0.20;;;13.50;99.10;;;;;;5052636;28;20059;-85
2023/05/02 11:45:41;;;;;;;0.28;0.17;;;13.90;97.30;;;;;;5079820;27;20112;-85
2023/05/02 11:48:10;;;;;;;;;;;13.90;95.20;;;;;;5155060;27;20061;-85
2023/05/02 11:50:44;;;;;;;0.82;0.20;;;13.90;95.20;;;;;;5122204;27;20386;-85
2023/05/02 11:53:12;;;;;;;1.60;0.20;;;13.80;94.20;;;;;;5138942;27;20121;-84
2023/05/02 11:55:44;;;;;;;1.75;0.10;;;13.30;93.90;;;;;;5139391;27;20051;-85
2023/05/02 11:58:18;;;;;;;0.60;0.20;;;13.60;95.40;;;;;;5121872;27;20034;-86
2023/05/02 12:00:46;;;;;;;1.80;0.38;;;13.50;94.50;;;;;;5158411;27;20042;-85
2023/05/02 12:03:32;;;;;;;1.15;0.10;;;13.70;95.30;;;;;;5141373;27;20038;-87
2023/05/02 12:06:11;;;;;;;;;;;13.90;96.20;;;;;;5139282;27;20039;-86
2023/05/02 12:08:38;;;;;;;4.75;0.35;;;14.50;96.20;;;;;;5137768;27;20017;-86
2023/05/02 12:11:03;;;;;;;1.25;0.20;;;14.60;95.40;;;;;;5120709;27;20026;-85
2023/05/02 12:13:29;;;;;;;1.75;0.20;;;14.50;91.90;;;;;;5156928;27;20043;-85
2023/05/02 12:15:58;;;;;;;1.92;0.20;;;14.50;92.10;;;;;;5129533;27;20043;-84
2023/05/02 12:18:25;;;;;;;0.43;0.10;;;14.20;91.80;;;;;;5137945;27;20035;-85
2023/05/02 12:20:56;;;;;;;0.93;0.20;;;14.30;92.30;;;;;;5156772;27;20049;-86
2023/05/02 12:23:25;;;;;;;1.35;0.25;;;14.20;91.80;;;;;;5138469;27;20050;-83
2023/05/02 12:25:50;;;;;;;3.22;0.22;;;13.80;92.80;;;;;;5137346;27;20039;-84
2023/05/02 12:28:22;;;;;;;2.42;0.30;;;13.40;94.60;;;;;;5156812;27;20046;-85
2023/05/02 12:30:50;;;;;;;1.02;0.10;;;13.30;94.70;;;;;;5138635;27;20091;-82
2023/05/02 12:33:16;;;;;;;1.15;0.20;;;13.50;96.40;;;;;;5138223;27;20082;-82
2023/05/02 12:35:42;;;;;;;2.88;0.30;;;12.80;96.00;;;;;;5138186;27;20134;-86
2023/05/02 12:38:21;;;;;;;2.45;0.20;;;13.40;96.60;;;;;;5138298;27;20126;-83
2023/05/02 12:41:05;;;;;;;1.95;0.30;;;13.50;97.70;;;;;;5155831;27;20046;-83
2023/05/02 12:43:47;;;;;;;3.70;0.30;;;13.10;97.40;;;;;;5156640;27;20066;-87
2023/05/02 12:46:19;;;;;;;3.75;0.40;;;12.80;97.40;;;;;;5136351;27;20035;-86
2023/05/02 12:48:45;;;;;;;1.10;0.30;;;12.70;97.40;;;;;;5156400;27;20103;-87
2023/05/02 12:51:22;;;;;;;0.55;0.20;;;12.60;97.30;;;;;;5137908;27;20099;-81
2023/05/02 12:53:48;;;;;;;0.88;0.50;;;12.60;97.60;;;;;;5156112;27;20046;-85
2023/05/02 12:56:14;;;;;;;1.33;0.22;;;12.30;97.20;;;;;;5156658;27;20035;-85
2023/05/02 12:58:44;;;;;;;1.45;0.30;;;12.60;99.20;;;;;;5155638;27;20097;-83
2023/05/02 13:01:11;;;;;;;1.85;0.40;;;12.60;99.20;;;;;;5148639;27;20039;-86
2023/05/02 13:03:37;;;;;;;2.50;0.40;;;12.80;97.80;;;;;;5150787;27;20394;-81
2023/05/02 13:06:03;;;;;;;2.85;0.30;;;12.90;98.20;;;;;;5153745;27;20038;-85
2023/05/02 13:08:29;;;;;;;2.78;0.30;;;12.70;97.30;;;;;;5148376;27;20047;-88